Time;durP1;ratioP1;P1;durP2;ratioP2;P2;SDS_P1;SDS_P2;PMS_P1;PMS_P2;Temp;Humidity;BMP_temperature;BMP_pressure;BME280_temperature;BME280_humidity;BME280_pressure;Samples;Min_cycle;Max_cycle;Signal;HPM_P1;HPM_P2
2020/12/18 00:01:24;;;;;;;27.20;6.68;;;2.70;83.70;;;0.41;84.92;96896.81;5045337;28;20408;-71
2020/12/18 00:03:53;;;;;;;24.35;6.70;;;2.70;83.50;;;0.43;85.56;96892.34;5072220;28;20149;-70
2020/12/18 00:06:20;;;;;;;30.40;7.10;;;2.70;83.70;;;0.44;85.50;96888.81;5021898;28;20059;-73
2020/12/18 00:08:49;;;;;;;20.25;6.97;;;2.70;83.60;;;0.45;84.98;96889.66;5051120;28;20053;-70
2020/12/18 00:11:26;;;;;;;9.60;6.43;;;2.70;83.50;;;0.48;85.97;96900.63;5036323;28;20509;-70
2020/12/18 00:13:52;;;;;;;10.73;6.38;;;2.80;83.70;;;0.49;85.42;96897.13;5057406;28;20037;-70
2020/12/18 00:16:19;;;;;;;11.15;6.28;;;2.80;83.80;;;0.51;85.05;96895.25;5046277;28;20033;-71
2020/12/18 00:18:45;;;;;;;10.20;6.55;;;2.80;83.70;;;0.52;85.23;96896.91;5039522;28;20036;-70
2020/12/18 00:21:11;;;;;;;9.95;6.35;;;2.80;83.70;;;0.51;84.90;96905.59;5043650;28;20040;-70
2020/12/18 00:23:37;;;;;;;11.45;5.78;;;2.80;83.30;;;0.54;85.11;96909.72;5060095;28;20028;-71
2020/12/18 00:26:03;;;;;;;21.73;5.55;;;2.80;83.30;;;0.54;85.43;96915.72;5072697;28;20384;-70
2020/12/18 00:28:28;;;;;;;7.47;5.25;;;2.80;83.20;;;0.53;84.98;96921.03;5063806;28;20466;-71
2020/12/18 00:30:54;;;;;;;26.10;6.22;;;2.80;83.20;;;0.55;85.33;96916.56;5035549;28;20619;-71
2020/12/18 00:33:20;;;;;;;13.30;5.07;;;2.80;83.00;;;0.53;85.31;96929.63;5049072;28;20032;-71
2020/12/18 00:35:46;;;;;;;6.20;4.70;;;2.80;83.10;;;0.54;84.88;96923.50;5017189;28;20036;-69
2020/12/18 00:38:12;;;;;;;10.70;5.63;;;2.80;83.00;;;0.54;85.27;96909.72;5064378;28;20029;-70
2020/12/18 00:40:38;;;;;;;11.10;5.88;;;2.80;83.00;;;0.53;85.49;96911.50;5036784;28;20404;-70
2020/12/18 00:43:04;;;;;;;9.68;4.97;;;2.80;83.10;;;0.50;84.78;96896.19;5072305;28;20024;-70
2020/12/18 00:45:32;;;;;;;12.18;4.88;;;2.80;82.90;;;0.49;85.34;96894.53;5030884;28;20051;-72
2020/12/18 00:47:58;;;;;;;6.70;5.03;;;2.80;82.90;;;0.49;85.05;96901.47;5041382;28;20607;-71
2020/12/18 00:50:24;;;;;;;7.45;5.18;;;2.70;83.00;;;0.47;85.23;96899.00;5071036;28;20133;-70
2020/12/18 00:52:49;;;;;;;6.63;4.88;;;2.70;82.80;;;0.48;84.80;96895.47;5054866;28;20407;-70
2020/12/18 00:55:15;;;;;;;9.25;4.93;;;2.70;82.70;;;0.48;85.00;96895.47;5053631;28;20063;-71
2020/12/18 00:57:41;;;;;;;7.07;5.47;;;2.80;82.60;;;0.46;85.14;96881.81;5048307;28;20466;-70
2020/12/18 01:00:09;;;;;;;11.20;6.15;;;2.80;82.80;;;0.47;85.17;96883.47;5054134;28;20516;-71
2020/12/18 01:02:43;;;;;;;17.02;5.85;;;2.80;82.70;;;0.47;84.83;96887.81;5043328;28;20040;-70
2020/12/18 01:05:08;;;;;;;13.43;6.03;;;2.70;82.80;;;0.45;84.91;96895.66;5066131;28;20040;-72
2020/12/18 01:07:34;;;;;;;8.93;5.95;;;2.70;83.00;;;0.44;85.46;96893.16;5044129;28;20040;-70
2020/12/18 01:10:00;;;;;;;12.73;5.78;;;2.70;83.20;;;0.43;85.26;96897.53;5041832;28;20032;-70
2020/12/18 01:12:26;;;;;;;9.20;5.68;;;2.60;83.20;;;0.39;85.26;96890.91;5038950;28;20064;-70
2020/12/18 01:14:52;;;;;;;9.15;5.95;;;2.60;83.40;;;0.36;85.37;96890.31;5046120;28;20039;-70
2020/12/18 01:17:20;;;;;;;9.35;6.53;;;2.60;83.40;;;0.38;85.45;96897.03;5057802;28;20048;-72
2020/12/18 01:19:57;;;;;;;12.10;5.97;;;2.70;83.40;;;0.40;84.99;96896.91;5044813;28;20127;-70
2020/12/18 01:22:23;;;;;;;14.27;6.15;;;2.60;83.30;;;0.33;85.35;96891.34;5031676;28;20033;-74
2020/12/18 01:24:49;;;;;;;10.25;6.50;;;2.60;83.50;;;0.38;84.91;96904.78;5055578;28;20033;-73
2020/12/18 01:27:15;;;;;;;14.82;5.93;;;2.60;83.30;;;0.38;85.19;96894.44;5051329;28;20043;-73
2020/12/18 01:29:41;;;;;;;12.38;6.43;;;2.60;83.40;;;0.35;85.33;96892.06;5044270;22;20060;-66
2020/12/18 01:32:06;;;;;;;11.25;6.60;;;2.60;83.20;;;0.32;85.07;96897.47;4984715;28;20042;-66
2020/12/18 01:34:32;;;;;;;10.57;6.97;;;2.60;83.30;;;0.32;85.15;96894.88;5040371;28;20079;-68
2020/12/18 01:36:57;;;;;;;9.77;6.35;;;2.60;83.20;;;0.33;84.92;96896.53;5035962;28;20548;-66
2020/12/18 01:39:23;;;;;;;13.23;7.15;;;2.60;83.30;;;0.30;85.40;96889.81;4991579;28;20050;-66
2020/12/18 01:41:48;;;;;;;13.68;7.00;;;2.50;83.50;;;0.25;85.15;96888.47;4991394;28;20534;-66
2020/12/18 01:44:14;;;;;;;16.40;7.25;;;2.30;83.80;;;0.21;85.58;96887.00;5002312;28;20037;-66
2020/12/18 01:46:40;;;;;;;9.88;6.80;;;2.20;84.00;;;0.20;85.70;96891.34;5010587;28;20579;-66
2020/12/18 01:49:05;;;;;;;16.98;6.07;;;2.30;84.20;;;0.20;85.04;96890.53;4993067;28;20042;-66
2020/12/18 01:51:31;;;;;;;14.85;6.85;;;2.30;84.00;;;0.18;85.35;96897.56;4984265;28;20038;-66
2020/12/18 01:53:56;;;;;;;13.75;7.25;;;2.20;83.90;;;0.14;85.52;96898.72;5015954;28;20427;-66
2020/12/18 01:56:22;;;;;;;11.57;6.55;;;2.20;84.20;;;0.16;85.20;96894.25;4991383;28;20108;-66
2020/12/18 01:58:47;;;;;;;14.23;6.97;;;2.30;84.10;;;0.12;85.50;96898.00;5004914;28;20116;-66
2020/12/18 02:01:13;;;;;;;20.70;6.68;;;2.20;84.00;;;0.11;85.42;96899.75;4991173;28;20046;-67
2020/12/18 02:03:39;;;;;;;8.90;6.45;;;2.30;83.80;;;0.10;85.37;96897.28;4991337;28;20031;-67
2020/12/18 02:06:14;;;;;;;15.13;6.32;;;2.20;84.00;;;0.06;85.92;96895.84;5009276;28;20516;-67
2020/12/18 02:08:41;;;;;;;16.83;6.25;;;2.20;84.20;;;0.06;85.37;96893.25;4974740;28;20410;-67
2020/12/18 02:11:07;;;;;;;20.92;6.43;;;2.20;84.20;;;0.02;85.40;96892.63;4989486;28;20033;-67
2020/12/18 02:13:32;;;;;;;14.50;7.38;;;2.20;84.40;;;0.01;85.32;96901.34;4994862;28;20039;-67
2020/12/18 02:15:58;;;;;;;11.95;6.78;;;2.20;84.50;;;0.02;85.86;96891.81;5010489;28;20719;-67
2020/12/18 02:18:23;;;;;;;22.33;6.97;;;2.30;84.40;;;0.07;85.31;96892.31;5014927;28;20030;-67
2020/12/18 02:20:52;;;;;;;11.63;6.90;;;2.30;84.40;;;0.07;86.26;96889.72;4996935;28;20072;-67
2020/12/18 02:23:18;;;;;;;19.80;7.57;;;2.40;84.20;;;0.05;85.80;96887.25;4987749;28;20419;-67
2020/12/18 02:25:43;;;;;;;16.10;6.85;;;2.40;84.30;;;0.05;85.82;96891.59;5020763;28;20038;-67
2020/12/18 02:28:10;;;;;;;17.60;7.50;;;2.40;84.20;;;0.06;85.89;96885.50;5013332;28;20062;-67
2020/12/18 02:30:37;;;;;;;16.13;6.80;;;2.40;84.30;;;0.10;85.82;96895.50;4991093;28;20046;-67
2020/12/18 02:33:06;;;;;;;17.02;7.10;;;2.40;84.30;;;0.13;85.76;96897.06;5003997;28;20065;-66
2020/12/18 02:35:33;;;;;;;20.33;6.90;;;2.40;84.30;;;0.11;86.08;96880.81;5000858;28;20471;-67
2020/12/18 02:37:59;;;;;;;18.50;6.63;;;2.40;84.30;;;0.09;85.71;96880.09;4976009;28;20042;-66
2020/12/18 02:40:24;;;;;;;11.40;7.60;;;2.30;84.20;;;0.08;86.12;96874.09;4991585;28;20046;-67
2020/12/18 02:42:50;;;;;;;17.83;7.38;;;2.40;84.50;;;0.09;86.05;96867.16;4998099;28;20511;-67
2020/12/18 02:45:16;;;;;;;10.82;6.93;;;2.40;84.20;;;0.11;86.08;96870.47;4996184;28;20042;-67
2020/12/18 02:47:41;;;;;;;12.68;6.75;;;2.40;84.20;;;0.13;86.14;96873.78;4992949;28;20537;-67
2020/12/18 02:50:07;;;;;;;16.60;6.82;;;2.40;84.20;;;0.13;86.11;96860.84;4991732;28;20576;-67
2020/12/18 02:52:32;;;;;;;11.10;7.30;;;2.50;83.90;;;0.10;85.93;96858.47;4992597;28;20050;-66
2020/12/18 02:54:58;;;;;;;15.30;6.60;;;2.40;84.10;;;0.08;86.30;96861.16;4978719;28;20045;-67
2020/12/18 02:57:24;;;;;;;17.75;7.32;;;2.40;84.20;;;0.08;86.04;96862.94;5000915;28;20478;-67
2020/12/18 02:59:49;;;;;;;10.25;7.15;;;2.40;84.30;;;0.07;85.95;96861.28;5016353;28;20105;-67
2020/12/18 03:02:15;;;;;;;9.95;6.75;;;2.40;84.30;;;0.09;86.13;96862.00;4994316;28;20045;-67
2020/12/18 03:04:40;;;;;;;12.65;6.50;;;2.30;84.20;;;0.12;85.98;96854.03;5011256;28;20151;-67
2020/12/18 03:07:06;;;;;;;7.97;5.82;;;2.30;84.10;;;0.12;85.63;96865.19;5011301;28;20124;-67
2020/12/18 03:09:31;;;;;;;10.07;6.90;;;2.40;84.00;;;0.13;86.10;96864.25;4977781;28;20034;-67
2020/12/18 03:11:57;;;;;;;10.98;6.57;;;2.40;83.80;;;0.16;85.53;96873.56;5006312;28;20515;-67
2020/12/18 03:14:22;;;;;;;7.97;5.65;;;2.40;83.70;;;0.17;85.37;96870.88;5012564;28;20394;-67
2020/12/18 03:16:48;;;;;;;7.40;5.43;;;2.20;83.50;;;0.18;85.58;96871.69;4998572;28;20057;-67
2020/12/18 03:19:13;;;;;;;7.25;5.20;;;2.40;83.70;;;0.19;85.74;96868.19;4998511;28;20046;-67
2020/12/18 03:21:39;;;;;;;6.80;4.75;;;2.40;83.40;;;0.16;85.61;96869.22;5017092;28;20468;-67
2020/12/18 03:24:04;;;;;;;10.20;5.63;;;2.40;83.20;;;0.18;85.45;96866.53;4997103;28;20050;-67
2020/12/18 03:26:30;;;;;;;6.70;5.20;;;2.40;83.10;;;0.19;85.73;96870.75;4990577;28;20034;-67
2020/12/18 03:28:56;;;;;;;8.00;5.55;;;2.40;83.20;;;0.18;85.82;96863.94;5013544;28;20053;-67
2020/12/18 03:31:22;;;;;;;7.93;6.07;;;2.50;82.90;;;0.19;85.26;96861.25;4991903;28;20037;-67
2020/12/18 03:33:47;;;;;;;8.77;6.05;;;2.50;83.10;;;0.18;85.17;96864.75;5007179;28;20211;-67
2020/12/18 03:36:13;;;;;;;10.10;6.57;;;2.50;83.10;;;0.20;85.30;96877.59;5026386;28;20041;-66
2020/12/18 03:38:38;;;;;;;10.02;6.43;;;2.50;83.10;;;0.21;85.15;96877.47;5010607;28;20093;-67
2020/12/18 03:41:07;;;;;;;9.15;6.60;;;2.50;83.20;;;0.24;86.40;96886.81;4998227;28;20034;-67
2020/12/18 03:43:33;;;;;;;8.50;6.32;;;2.60;83.10;;;0.26;85.82;96887.53;4998432;28;20077;-67
2020/12/18 03:45:59;;;;;;;9.98;6.65;;;2.60;83.20;;;0.26;85.79;96874.59;5013434;28;20053;-67
2020/12/18 03:48:25;;;;;;;8.40;6.07;;;2.60;83.30;;;0.29;85.57;96876.97;4994919;28;20073;-67
2020/12/18 03:50:51;;;;;;;9.52;6.80;;;2.60;83.40;;;0.30;85.95;96881.22;4999180;28;20405;-67
2020/12/18 03:53:17;;;;;;;8.45;6.38;;;2.60;83.30;;;0.32;85.94;96874.16;4997018;28;20042;-67
2020/12/18 03:55:42;;;;;;;9.75;6.95;;;2.60;83.40;;;0.35;85.92;96879.13;4990130;28;20035;-67
2020/12/18 03:58:09;;;;;;;7.75;5.82;;;2.70;83.60;;;0.37;85.83;96895.38;4988858;28;20034;-67
2020/12/18 04:00:36;;;;;;;8.63;6.10;;;2.70;83.10;;;0.37;85.55;96897.97;5002904;28;20029;-67
2020/12/18 04:03:02;;;;;;;8.73;6.60;;;2.70;83.30;;;0.38;86.06;96884.09;5000148;28;20591;-67
2020/12/18 04:05:27;;;;;;;9.10;6.43;;;2.70;83.30;;;0.42;86.09;96885.53;5028729;28;20037;-67
2020/12/18 04:07:53;;;;;;;10.00;6.60;;;2.80;83.30;;;0.44;86.02;96885.41;5023968;28;20048;-67
2020/12/18 04:10:18;;;;;;;10.43;6.88;;;2.80;83.30;;;0.44;85.82;96881.06;5004290;28;20577;-66
2020/12/18 04:12:44;;;;;;;9.10;6.75;;;2.80;83.20;;;0.45;85.45;96890.47;4974061;28;20061;-67
2020/12/18 04:15:09;;;;;;;9.02;6.78;;;2.80;83.20;;;0.46;86.04;96897.34;5025055;28;20041;-67
2020/12/18 04:17:35;;;;;;;9.88;7.00;;;2.80;83.30;;;0.49;86.12;96902.28;5001440;28;20113;-67
2020/12/18 04:20:01;;;;;;;9.98;6.82;;;2.80;83.40;;;0.50;85.83;96892.78;5015196;28;20045;-68
2020/12/18 04:22:26;;;;;;;10.35;6.93;;;2.80;83.30;;;0.51;85.65;96892.66;4998498;28;20041;-67
2020/12/18 04:24:52;;;;;;;10.07;7.10;;;2.90;83.30;;;0.54;85.64;96889.03;4995667;28;20155;-67
2020/12/18 04:27:17;;;;;;;11.52;7.65;;;2.90;83.00;;;0.55;85.89;96896.69;4994652;28;20510;-67
2020/12/18 04:29:43;;;;;;;10.45;6.78;;;2.90;82.80;;;0.54;85.21;96884.66;4993902;28;20416;-66
2020/12/18 04:32:08;;;;;;;10.65;7.07;;;2.90;82.80;;;0.56;85.87;96887.16;4998199;28;20038;-67
2020/12/18 04:34:34;;;;;;;9.68;6.95;;;2.90;83.00;;;0.56;85.83;96875.03;5016649;28;20681;-67
2020/12/18 04:36:59;;;;;;;11.27;7.25;;;2.90;83.10;;;0.55;86.07;96873.38;4994814;28;20042;-66
2020/12/18 04:39:25;;;;;;;9.75;6.68;;;2.90;83.20;;;0.57;86.28;96862.91;4998363;28;20089;-67
2020/12/18 04:41:50;;;;;;;8.65;6.07;;;2.90;83.20;;;0.55;86.20;96870.78;4972708;28;20518;-69
2020/12/18 04:44:16;;;;;;;8.13;5.95;;;2.90;83.00;;;0.58;86.26;96872.34;4977342;28;20072;-65
2020/12/18 04:46:44;;;;;;;7.18;5.20;;;2.90;83.10;;;0.56;86.06;96872.44;4975215;28;20034;-66
2020/12/18 04:49:10;;;;;;;7.57;5.85;;;2.90;83.30;;;0.63;85.33;96872.00;4993859;28;20521;-68
2020/12/18 04:51:42;;;;;;;8.75;6.00;;;3.00;83.10;;;0.64;86.36;96874.47;4975736;28;20037;-66
2020/12/18 04:54:10;;;;;;;8.13;5.80;;;3.00;83.00;;;0.66;86.31;96884.72;4992019;28;20128;-66
2020/12/18 04:56:39;;;;;;;6.40;4.97;;;3.00;82.90;;;0.66;86.21;96892.50;4975045;28;20038;-66
2020/12/18 04:59:06;;;;;;;6.93;5.20;;;3.10;82.50;;;0.65;85.63;96891.66;4996094;28;20026;-66
2020/12/18 05:01:31;;;;;;;6.65;5.03;;;3.00;82.80;;;0.63;85.80;96888.38;4975663;28;20457;-66
2020/12/18 05:03:57;;;;;;;6.68;5.07;;;3.00;82.70;;;0.63;85.83;96877.19;4991359;28;20050;-66
2020/12/18 05:06:23;;;;;;;6.53;4.78;;;2.90;82.70;;;0.65;85.61;96899.44;4993405;28;20034;-68
2020/12/18 05:08:48;;;;;;;6.22;5.07;;;3.00;82.60;;;0.64;85.37;96894.38;5010674;28;20071;-66
2020/12/18 05:11:22;;;;;;;7.47;5.55;;;2.90;82.70;;;0.65;86.32;96901.19;5011219;28;20650;-66
2020/12/18 05:13:50;;;;;;;7.10;5.50;;;2.90;83.00;;;0.64;85.65;96899.53;4988237;28;20048;-66
2020/12/18 05:16:16;;;;;;;6.97;5.38;;;2.90;82.90;;;0.65;85.55;96898.59;4988702;28;20089;-66
2020/12/18 05:18:42;;;;;;;8.32;5.57;;;3.00;82.90;;;0.68;85.28;96900.97;4990032;28;20034;-67
2020/12/18 05:21:07;;;;;;;6.88;5.50;;;3.00;82.80;;;0.67;85.67;96897.56;5026127;28;20339;-66
2020/12/18 05:23:40;;;;;;;6.93;5.32;;;3.00;82.70;;;0.68;86.39;96900.97;4990149;28;20045;-66
2020/12/18 05:26:09;;;;;;;6.97;5.20;;;3.00;82.80;;;0.66;85.85;96898.50;4988587;28;20031;-66
2020/12/18 05:28:44;;;;;;;6.53;5.15;;;3.00;82.80;;;0.66;86.03;96885.56;5022170;28;20045;-67
2020/12/18 05:31:17;;;;;;;7.13;5.30;;;2.90;82.80;;;0.67;85.76;96883.78;5028772;28;20045;-66
2020/12/18 05:33:43;;;;;;;6.88;5.05;;;3.00;82.90;;;0.68;85.59;96885.44;4987124;28;20038;-67
2020/12/18 05:36:09;;;;;;;8.43;5.25;;;3.00;82.70;;;0.68;85.60;96880.25;5018979;28;20029;-67
2020/12/18 05:38:37;;;;;;;7.75;5.35;;;3.00;82.80;;;0.69;85.80;96887.13;4993773;28;20564;-67
2020/12/18 05:41:04;;;;;;;6.95;5.30;;;3.10;82.70;;;0.72;85.90;96881.72;4980165;28;20041;-67
2020/12/18 05:43:41;;;;;;;8.18;5.80;;;3.00;82.50;;;0.71;86.28;96893.84;5008958;28;20029;-72
2020/12/18 05:46:26;;;;;;;7.90;5.90;;;3.00;82.60;;;0.67;86.33;96883.78;5008516;28;20042;-66
2020/12/18 05:49:00;;;;;;;8.65;6.35;;;2.90;82.80;;;0.65;85.79;96890.84;4990432;28;20037;-66
2020/12/18 05:51:39;;;;;;;8.93;6.20;;;2.90;83.00;;;0.65;86.19;96898.59;5007747;28;20061;-66
2020/12/18 05:54:15;;;;;;;8.85;6.65;;;2.90;83.10;;;0.65;85.97;96898.59;4991290;28;20026;-66
2020/12/18 05:56:48;;;;;;;8.02;5.82;;;2.90;83.20;;;0.64;85.99;96900.38;4990010;28;20401;-66
2020/12/18 05:59:15;;;;;;;8.40;5.90;;;2.90;83.30;;;0.65;85.90;96901.19;4989304;28;20109;-66
2020/12/18 06:01:46;;;;;;;8.07;6.03;;;3.00;83.10;;;0.66;86.09;96897.69;5008170;28;20169;-66
2020/12/18 06:04:14;;;;;;;55.03;29.45;;;3.00;83.10;;;0.63;86.07;96890.94;4995492;28;20050;-66
2020/12/18 06:06:50;;;;;;;11.45;8.30;;;2.90;83.10;;;0.63;85.79;96908.25;5009970;28;20026;-66
2020/12/18 06:09:20;;;;;;;9.82;6.68;;;2.90;82.90;;;0.58;85.33;96893.88;4989994;28;20034;-66
2020/12/18 06:11:46;;;;;;;8.10;5.83;;;2.80;83.10;;;0.55;85.74;96896.69;4988393;28;20476;-66
2020/12/18 06:14:14;;;;;;;10.02;6.28;;;2.80;83.20;;;0.54;85.51;96900.22;4995630;28;20126;-66
2020/12/18 06:16:52;;;;;;;9.82;6.47;;;2.80;83.20;;;0.51;86.06;96897.84;4987122;28;20038;-66
2020/12/18 06:19:20;;;;;;;9.75;6.70;;;2.80;83.20;;;0.51;85.51;96909.94;4988060;28;20467;-66
2020/12/18 06:21:57;;;;;;;12.10;7.50;;;2.90;83.30;;;0.50;86.14;96909.13;4987787;28;20121;-66
2020/12/18 06:24:26;;;;;;;10.13;7.15;;;2.70;83.50;;;0.49;85.81;96912.66;4988232;28;20065;-66
2020/12/18 06:26:56;;;;;;;11.23;7.93;;;2.80;83.60;;;0.49;86.32;96907.47;5010043;28;20069;-67
2020/12/18 06:29:26;;;;;;;10.77;7.22;;;2.70;83.60;;;0.49;86.12;96920.41;4992046;28;20540;-66
2020/12/18 06:31:52;;;;;;;12.05;7.90;;;2.80;83.70;;;0.48;85.72;96915.34;5009885;28;20034;-66
2020/12/18 06:34:25;;;;;;;10.93;7.47;;;2.80;83.70;;;0.48;86.47;96918.75;4993923;28;20413;-66
2020/12/18 06:36:51;;;;;;;19.83;8.25;;;2.80;83.60;;;0.47;85.74;96924.88;5009896;28;20412;-66
2020/12/18 06:39:32;;;;;;;17.27;7.88;;;2.80;83.70;;;0.47;86.28;96927.47;5028329;28;20122;-66
2020/12/18 06:42:18;;;;;;;9.67;7.23;;;2.70;83.70;;;0.48;86.83;96933.47;5026611;28;20540;-66
2020/12/18 06:44:46;;;;;;;13.40;7.50;;;2.80;83.70;;;0.47;85.82;96924.03;4974526;28;20400;-66
2020/12/18 06:47:24;;;;;;;63.65;8.48;;;2.80;83.70;;;0.45;86.51;96916.34;4990817;28;20113;-66
2020/12/18 06:50:10;;;;;;;18.85;7.45;;;2.70;83.80;;;0.42;87.33;96926.09;4990564;28;20037;-66
2020/12/18 06:52:58;;;;;;;16.67;7.70;;;2.70;83.90;;;0.38;86.89;96930.66;4987241;28;20199;-66
2020/12/18 06:55:29;;;;;;;11.82;7.60;;;2.60;84.10;;;0.39;87.09;96921.13;4987803;28;20122;-66
2020/12/18 06:58:09;;;;;;;11.23;7.07;;;2.70;84.00;;;0.39;86.69;96931.50;5002119;28;20149;-66
2020/12/18 07:00:54;;;;;;;43.57;7.80;;;2.70;83.90;;;0.34;87.55;96924.06;5006113;28;20082;-66
2020/12/18 07:03:41;;;;;;;11.23;7.53;;;2.60;84.10;;;0.35;87.10;96930.88;4977358;28;20039;-66
2020/12/18 07:06:23;;;;;;;64.05;8.52;;;2.60;84.20;;;0.33;87.01;96927.56;5016335;28;20037;-67
2020/12/18 07:08:49;;;;;;;18.42;8.43;;;2.60;84.10;;;0.32;86.55;96925.91;4996870;28;20038;-66
2020/12/18 07:11:16;;;;;;;27.85;9.07;;;2.70;84.10;;;0.32;86.27;96931.09;4997563;28;20026;-66
2020/12/18 07:13:47;;;;;;;26.10;7.68;;;2.60;84.10;;;0.31;86.79;96929.44;5000473;28;20025;-66
2020/12/18 07:16:17;;;;;;;65.60;8.50;;;2.60;84.10;;;0.29;86.39;96920.97;5012449;28;20051;-69
2020/12/18 07:18:43;;;;;;;40.63;8.02;;;2.60;84.20;;;0.25;86.24;96917.75;5015686;28;20034;-69
2020/12/18 07:21:14;;;;;;;24.92;7.38;;;2.40;84.30;;;0.21;86.74;96918.06;4977474;28;20574;-69
2020/12/18 07:23:48;;;;;;;17.75;7.72;;;2.40;84.40;;;0.17;87.19;96916.59;4974469;28;20054;-68
2020/12/18 07:26:15;;;;;;;31.48;7.35;;;2.40;84.70;;;0.17;86.89;96916.59;4990505;28;20038;-69
2020/12/18 07:28:41;;;;;;;18.73;6.80;;;2.30;84.70;;;0.12;86.54;96909.16;5010463;28;20116;-69
2020/12/18 07:31:24;;;;;;;20.15;11.25;;;2.20;84.60;;;0.15;87.32;96913.31;4994881;28;20056;-66
2020/12/18 07:33:56;;;;;;;26.20;8.73;;;2.30;84.60;;;0.15;87.09;96918.47;5025728;28;20052;-66
2020/12/18 07:36:23;;;;;;;22.45;7.93;;;2.40;84.30;;;0.14;86.26;96922.81;5013164;28;20157;-67
2020/12/18 07:38:51;;;;;;;16.65;7.10;;;2.40;84.40;;;0.16;86.08;96925.31;4973756;28;20070;-65
2020/12/18 07:41:16;;;;;;;14.10;7.18;;;2.40;84.20;;;0.17;86.46;96926.97;4990200;28;20030;-68
2020/12/18 07:43:44;;;;;;;32.40;10.63;;;2.40;84.20;;;0.16;86.29;96917.53;5007218;28;20064;-68
2020/12/18 07:46:12;;;;;;;35.20;9.80;;;2.40;84.20;;;0.13;86.73;96930.69;5024072;28;20117;-68
2020/12/18 07:48:39;;;;;;;33.40;16.27;;;2.40;84.10;;;0.13;86.95;96925.53;5012332;28;20398;-67
2020/12/18 07:51:21;;;;;;;36.63;9.60;;;2.50;84.20;;;0.16;86.41;96931.31;5009501;28;20113;-68
2020/12/18 07:53:50;;;;;;;32.72;10.15;;;2.60;83.70;;;0.21;86.52;96938.75;4994546;28;20668;-68
2020/12/18 07:56:18;;;;;;;17.60;6.45;;;2.60;83.50;;;0.23;86.32;96931.75;4993092;28;20052;-68
2020/12/18 07:58:47;;;;;;;11.82;5.70;;;2.60;83.10;;;0.25;86.70;96930.69;4991916;28;20029;-69
2020/12/18 08:01:15;;;;;;;17.80;5.43;;;2.70;82.80;;;0.24;86.33;96923.03;4994598;28;20034;-64
2020/12/18 08:03:57;;;;;;;11.57;6.13;;;2.70;82.60;;;0.23;86.77;96919.63;5006536;28;20087;-67
2020/12/18 08:06:30;;;;;;;24.95;5.30;;;2.60;82.80;;;0.24;86.18;96918.69;4997550;28;20116;-71
2020/12/18 08:09:00;;;;;;;8.18;4.80;;;2.60;82.40;;;0.27;86.17;96928.84;5001662;28;20183;-75
2020/12/18 08:11:31;;;;;;;20.65;6.80;;;2.70;82.20;;;0.33;86.20;96925.00;5012885;28;20196;-66
2020/12/18 08:13:58;;;;;;;10.67;6.33;;;2.70;82.00;;;0.36;86.38;96921.34;4986014;28;20042;-69
2020/12/18 08:16:29;;;;;;;6.95;4.80;;;2.80;82.50;;;0.42;85.91;96911.41;4973321;28;20034;-66
2020/12/18 08:18:58;;;;;;;8.82;4.30;;;2.90;82.10;;;0.47;85.70;96922.28;5004192;28;20041;-70
2020/12/18 08:21:31;;;;;;;9.15;4.43;;;3.00;80.80;;;0.53;85.78;96918.44;4993146;28;20085;-67
2020/12/18 08:24:09;;;;;;;6.43;4.50;;;3.10;80.60;;;0.63;85.55;96918.59;4998159;28;20103;-70
2020/12/18 08:26:41;;;;;;;7.32;4.30;;;3.20;80.30;;;0.68;85.71;96919.97;5002594;28;20034;-64
2020/12/18 08:29:07;;;;;;;8.70;4.47;;;3.40;79.90;;;0.79;85.46;96919.19;4989008;28;20053;-70
2020/12/18 08:31:37;;;;;;;9.50;4.93;;;3.40;79.70;;;0.90;85.95;96921.81;4999607;28;20409;-64
2020/12/18 08:34:07;;;;;;;14.18;4.70;;;3.60;80.10;;;0.98;85.90;96927.31;5001673;28;20060;-67
2020/12/18 08:36:38;;;;;;;7.43;4.95;;;3.60;79.50;;;1.07;85.78;96908.50;4999560;28;20045;-65
2020/12/18 08:39:06;;;;;;;11.73;5.03;;;3.80;79.60;;;1.17;85.56;96914.69;4982515;28;20038;-71
2020/12/18 08:41:39;;;;;;;8.32;5.07;;;3.90;79.10;;;1.29;85.09;96909.53;4998114;28;20389;-66
2020/12/18 08:44:08;;;;;;;6.57;4.82;;;4.00;78.50;;;1.40;84.93;96912.19;5012115;28;20476;-64
2020/12/18 08:46:34;;;;;;;69.68;38.28;;;4.20;78.80;;;1.52;85.22;96919.06;5007155;28;20540;-64
2020/12/18 08:49:09;;;;;;;21.42;14.80;;;4.30;79.70;;;1.64;85.26;96918.16;4988907;28;20175;-65
2020/12/18 08:51:34;;;;;;;22.42;12.48;;;4.60;79.00;;;1.76;84.66;96914.63;4996516;28;20354;-68
2020/12/18 08:54:00;;;;;;;11.27;6.50;;;4.60;77.00;;;1.87;85.01;96913.84;4994953;28;20033;-65
2020/12/18 08:56:25;;;;;;;12.52;7.90;;;4.80;77.20;;;1.96;84.49;96912.31;5017552;28;20113;-65
2020/12/18 08:59:01;;;;;;;13.00;7.82;;;4.90;75.60;;;2.08;83.41;96911.41;4974091;28;20581;-66
2020/12/18 09:01:27;;;;;;;35.40;19.33;;;5.10;74.40;;;2.16;84.19;96911.63;5007913;28;20519;-66
2020/12/18 09:03:53;;;;;;;11.60;7.10;;;5.20;73.90;;;2.23;84.51;96915.41;4987758;28;20038;-65
2020/12/18 09:06:18;;;;;;;5.82;4.45;;;5.10;73.80;;;2.31;84.20;96905.28;5029232;28;20493;-66
2020/12/18 09:08:44;;;;;;;6.70;4.55;;;5.30;73.60;;;2.35;83.85;96914.47;4988091;28;20036;-66
2020/12/18 09:11:10;;;;;;;6.57;4.93;;;5.30;72.90;;;2.39;84.09;96913.28;4998438;28;20397;-66
2020/12/18 09:13:39;;;;;;;6.05;4.68;;;5.30;72.90;;;2.47;83.07;96908.31;5006802;28;20056;-64
2020/12/18 09:16:06;;;;;;;6.60;5.13;;;5.40;73.30;;;2.56;83.50;96908.56;4991210;28;20088;-64
2020/12/18 09:18:36;;;;;;;6.22;4.53;;;5.50;72.80;;;2.64;82.44;96909.63;4990945;28;20497;-65
2020/12/18 09:21:10;;;;;;;8.70;5.05;;;5.60;72.50;;;2.69;82.09;96917.03;4973041;28;20038;-66
2020/12/18 09:23:36;;;;;;;7.93;4.72;;;5.70;72.00;;;2.74;82.94;96909.75;5019100;28;20034;-66
2020/12/18 09:26:02;;;;;;;6.85;4.68;;;5.70;71.70;;;2.78;83.12;96905.94;5028709;28;20500;-64
2020/12/18 09:28:37;;;;;;;6.45;4.82;;;5.80;71.90;;;2.82;81.93;96907.34;5008718;28;20037;-63
2020/12/18 09:31:03;;;;;;;16.42;10.20;;;5.80;71.70;;;2.90;83.12;96904.97;4994869;28;20030;-63
2020/12/18 09:33:30;;;;;;;10.18;7.13;;;5.90;71.80;;;2.98;82.54;96900.00;5001767;28;20029;-64
2020/12/18 09:36:19;;;;;;;10.15;6.43;;;5.90;71.60;;;3.04;82.74;96912.50;5000205;28;20041;-63
2020/12/18 09:38:49;;;;;;;7.05;5.15;;;6.10;71.30;;;3.09;81.16;96899.13;5007625;28;20041;-64
2020/12/18 09:41:18;;;;;;;9.48;5.47;;;6.00;71.20;;;3.13;82.19;96894.50;5010819;28;20128;-64
2020/12/18 09:43:43;;;;;;;8.98;5.38;;;6.00;70.90;;;3.16;82.40;96900.28;4999206;28;20038;-63
2020/12/18 09:46:13;;;;;;;7.65;5.20;;;6.10;71.20;;;3.15;82.30;96900.41;4987829;28;20406;-64
2020/12/18 09:48:42;;;;;;;6.95;4.82;;;5.90;71.50;;;3.22;81.45;96894.59;4997179;28;20120;-64
2020/12/18 09:51:08;;;;;;;9.50;5.72;;;6.20;71.40;;;3.30;82.00;96896.56;4991804;28;20394;-65
2020/12/18 09:53:33;;;;;;;8.20;5.88;;;6.40;70.70;;;3.38;81.95;96894.16;4996335;28;20051;-67
2020/12/18 09:55:59;;;;;;;8.85;6.30;;;6.50;70.70;;;3.44;81.78;96892.88;4984061;28;20072;-67
2020/12/18 09:58:25;;;;;;;10.70;5.97;;;6.40;70.80;;;3.44;81.41;96887.66;4996853;28;20034;-64
2020/12/18 10:00:51;;;;;;;9.13;6.05;;;6.40;71.20;;;3.50;82.07;96885.38;5009505;28;20089;-67
2020/12/18 10:03:16;;;;;;;9.82;6.05;;;6.50;71.20;;;3.60;82.04;96888.84;4989627;28;20069;-68
2020/12/18 10:05:46;;;;;;;8.18;5.72;;;6.60;70.90;;;3.67;80.33;96895.22;4990539;28;20125;-67
2020/12/18 10:08:12;;;;;;;9.00;5.47;;;6.50;70.50;;;3.66;81.29;96888.38;5000922;28;20038;-64
2020/12/18 10:10:37;;;;;;;8.57;5.38;;;6.30;71.30;;;3.63;81.24;96891.22;5009848;28;20029;-65
2020/12/18 10:13:03;;;;;;;7.22;5.57;;;6.30;71.40;;;3.61;81.13;96880.09;4999377;28;20034;-64
2020/12/18 10:15:28;;;;;;;10.18;5.88;;;6.20;71.10;;;3.57;81.11;96880.50;5001013;28;20041;-69
2020/12/18 10:17:55;;;;;;;7.22;4.93;;;6.40;70.70;;;3.57;81.00;96889.13;4999570;28;20026;-67
2020/12/18 10:20:20;;;;;;;8.23;5.45;;;6.30;70.80;;;3.62;81.03;96887.00;4990506;28;20036;-70
2020/12/18 10:22:46;;;;;;;6.30;4.80;;;6.50;70.70;;;3.63;81.00;96885.22;4989701;28;20405;-68
2020/12/18 10:25:11;;;;;;;8.23;5.63;;;6.50;70.20;;;3.63;80.83;96885.22;5003673;28;20038;-68
2020/12/18 10:27:37;;;;;;;8.07;5.28;;;6.40;70.70;;;3.66;80.63;96880.56;5009683;28;20347;-63
2020/12/18 10:30:06;;;;;;;7.15;5.47;;;6.40;70.60;;;3.60;79.57;96878.47;5003592;28;20053;-63
2020/12/18 10:32:34;;;;;;;6.70;4.57;;;6.30;70.70;;;3.59;80.35;96875.97;4990287;28;20108;-63
2020/12/18 10:34:59;;;;;;;7.60;5.30;;;6.30;70.60;;;3.58;80.48;96875.16;4973211;28;20042;-63